Breeden, West Virginia
Current Conditions -  °F | °C
As of 4:35 PM on Saturday 22 Nov 2014 (Local Time) from KSJS Reporting Station
Scattered Clouds Scattered Clouds  
Wind Chill: 60°   Ceiling: Unl
Heat Index: 60°   Visibility: 10mi
Dew Point: 24°   Wind: 9mph
Humidity: 25%   Direction: 220°SW
Pressure: 30.2"   Gusts: 17mph
Location:  37.93°N, 82.28°W
Report Text: KSJS 222135Z AUTO 22008G15KT 10SM SCT100 16/M04 A3020 RMK AO2 T01571045
Loading
Personal Weather Stations






























Interactive Weather Map New forecast layout! Learn more

10-Day Weather Forecast

Advertisements
Track Severe Weather on mobile